Terminal Aerodrome Forecast
Issued by NWS Greer, SC

Home | Current Version | Previous Version | Text Only | Print | Product List | Glossary On
Versions: 1 2 3 4 5 6 7 8 9 10 11 12 13 14 15
000
FTUS42 KGSP 221139
TAFAVL
TAF
KAVL 221139Z 2212/2312 15003KT 5SM -SHRA BR OVC005
      TEMPO 2212/2214 4SM -DZ BR BKN003
     FM221400 16004KT 3SM -DZRA OVC008
     FM221500 17004KT 3SM -DZ OVC010
     FM222000 15005KT P6SM OVC020
     FM230100 16003KT 4SM BR OVC020
     FM230600 VRB02KT 1SM BR OVC008=

USA.gov is the U.S. government's official web portal to all federal, state and local government web resources and services.